Badgingarra, Australia
Current Conditions -  °F | °C
As of 8:00 PM on Friday 24 Oct 2014 (Local Time) from YPEA Reporting Station
Clear Clear  
Wind Chill: 61°   Ceiling: Unl
Heat Index: 61°   Visibility: 6mi
Dew Point: 52°   Wind: 6mph
Humidity: 72%   Direction: 240°WSW
Pressure: 29.97"   Gusts: NA
Location:  30.4°S, 115.54°E
Report Text: YPEA 241200Z AUTO 24005KT 9999 // NCD 16/11 Q1015
Loading
Personal Weather Stations






























Interactive Weather Map
Tropical Storm Tracking
New forecast layout! Learn more

10-Day Weather Forecast

Advertisements
Track Severe Weather on mobile